Laukaa, Finland
Kieli:  Suomi
CurCond
Päivitetty08/10/2019 09:50 
 

Lähistön Lentoasemien Säätiloja:

 

EFJY - Jyvaskyla (mil/C,) Finland
Etäisyys Sääasemalta: PKo 21km
Päivitetty: 20/10/2019 11:50
Heikkoa sadetta, Kuurottaisia sateita, Enimmäkseen pilvistä
Heikkoa sadetta, Kuurottaisia sateita, Enimmäkseen pilvistä
 Tuulen suunta P
Tuuli: P 9 km/h
Lämpötila: 2°C
Tuulen purevuus: -1°C
Kastepiste: 0°C
Ilmankosteus: 87%
Ilmanpaine: 1016 hPa
Yhteenveto: Heikkoa sadetta, Kuurottaisia sateita
Pilvisyys: Enimmäkseen pilvistä
Näkyvyys: 10 km
Pilvisyystiedot: Enimmäkseen pilvistä 427 m
2019/10/20 08:50 EFJY 200850Z AUTO 35005KT 300V020 9999 -SHRA BKN014 02/M00 Q1016
EFHA - Halli (fin-Afb), Finland
Etäisyys Sääasemalta: Lo 56km
Päivitetty: 20/10/2019 11:50
Enimmäkseen pilvistä
Enimmäkseen pilvistä
 Tuulen suunta I
Tuuli: I 7 km/h
Lämpötila: 2°C
Tuulen purevuus: 0°C
Kastepiste: -1°C
Ilmankosteus: 81%
Ilmanpaine: 1016 hPa
Pilvisyys: Enimmäkseen pilvistä
Näkyvyys: 10 km
Pilvisyystiedot: Enimmäkseen pilvistä 335 m
2019/10/20 08:50 EFHA 200850Z AUTO 09004KT 030V140 9999 BKN011 02/M01 Q1016
EFMI - Mikkeli, Finland
Etäisyys Sääasemalta: IKa 105km
Päivitetty: 20/10/2019 11:50
Enimmäkseen pilvistä
Enimmäkseen pilvistä
 Tuulen suunta varies
Tuuli: varies 4 km/h
Lämpötila: 3°C
Kastepiste: 2°C
Ilmankosteus: 93%
Ilmanpaine: 1016 hPa
Pilvisyys: Enimmäkseen pilvistä
Näkyvyys: 10 km
Pilvisyystiedot: Enimmäkseen pilvistä 366 m
2019/10/20 08:50 EFMI 200850Z AUTO VRB02KT 9999 BKN012 03/02 Q1016
 
EFTP - Tampere/Pirkkala, Finland
Etäisyys Sääasemalta: Lo 135km
Päivitetty: 20/10/2019 12:20
Pilvistä
Pilvistä
 Tuulen suunta IKo
Tuuli: IKo 15 km/h
Lämpötila: 3°C
Tuulen purevuus: -1°C
Kastepiste: 2°C
Ilmankosteus: 93%
Ilmanpaine: 1016 hPa
Pilvisyys: Pilvistä
Näkyvyys: 10 km
Pilvisyystiedot: Joitain Pilviä 152 m
Pilvistä 213 m
2019/10/20 09:20 EFTP 200920Z AUTO 07008KT 9999 FEW005 OVC007 03/02 Q1016
EFKU - Kuopio (mil/Civ), Finland
Etäisyys Sääasemalta: Ko 146km
Päivitetty: 20/10/2019 11:50
Pilvistä
Pilvistä
 Tuulen suunta PKo
Tuuli: PKo 9 km/h
Lämpötila: 2°C
Tuulen purevuus: -1°C
Kastepiste: -1°C
Ilmankosteus: 81%
Ilmanpaine: 1016 hPa
Pilvisyys: Pilvistä
Näkyvyys: 10 km
Pilvisyystiedot: Pilvistä 457 m
2019/10/20 08:50 EFKU 200850Z AUTO 02005KT 9999 OVC015 02/M01 Q1016
EFSI - Seinajoki-Ilmajo, Finland
Etäisyys Sääasemalta: LLu 149km
Päivitetty: 20/10/2019 11:50
Enimmäkseen pilvistä
Enimmäkseen pilvistä
 Tuulen suunta I
Tuuli: I 9 km/h
Lämpötila: 1°C
Tuulen purevuus: -2°C
Kastepiste: 0°C
Ilmankosteus: 93%
Ilmanpaine: 1016 hPa
Pilvisyys: Enimmäkseen pilvistä
Näkyvyys: 10 km
Pilvisyystiedot: Joitain Pilviä 244 m
Enimmäkseen pilvistä 305 m
2019/10/20 08:50 EFSI 200850Z AUTO 08005KT 040V110 9999 FEW008 BKN010 01/00 Q1016